Kezdőlap
METAR-TAF:

METAR-TAF

Repülőterek :

Francis S. Gabreski Airport

Westhampton Beach, New York, Amerikai Egyesült Államok

földrajzi szélesség: 40-51-03N, földrajzi hosszúság: 072-37-14W, magasság: 20 m

Jelenlegi meteorológiai megfigyelések

A jelentés 27 perccel ezelõtt készült, 23:53 UTC
Déli szél 9 kt széllökések: 17 kt
Hőmérséklet 1°C
Páratartalom 93%
Légköri nyomás 1019 hPa
Látótávolság: 12.9 km
Szakadozott felhőzet 700 lábon
Borult 1200 lábon
enyhe esõ

METAR: KFOK 182353Z 18009G17KT 8SM -RA BKN007 OVC012 01/00 A3008 RMK AO2 RAB27SNE27 SLP185 P0006 60018 T00110000 10011 21033 56062

Idő: 19:20 (00:20 UTC)


TAF: hiányzik

Meteorológiai megfigyelések és előrejelzések több, mint 4000 repülőtéren (METAR és TAF jelentéseket).

A térképen piros és sárga pontok jelzik az elérhető meteorológiai állomásokat.

Mozgassa az egeret a pont fölött, hogy megjelenjen az állomás neve.

Azután kattintson az időjárási megfigyelések és előrejelzések megtekintéséhez.

A térkép megváltoztatása: kattintson a fekete keresztel jelölt zöld gombra ráközelítéshez, a vonallal jelölt zöld gombra távolításhoz, vagy a zöld nyilakra a szomszédos térképek eléréséhez.


METAR-TAF: